sensor_id;sensor_type;location;lat;lon;timestamp;P1;durP1;ratioP1;P2;durP2;ratioP2
32130;SDS011;18639;50.716;7.086;2022-08-04T00:01:32;3.47;;;1.40;;
32130;SDS011;18639;50.716;7.086;2022-08-04T00:04:12;3.03;;;1.52;;
32130;SDS011;18639;50.716;7.086;2022-08-04T00:12:06;2.42;;;1.65;;
32130;SDS011;18639;50.716;7.086;2022-08-04T00:14:35;3.20;;;1.48;;
32130;SDS011;18639;50.716;7.086;2022-08-04T00:17:05;3.25;;;1.52;;
32130;SDS011;18639;50.716;7.086;2022-08-04T00:19:31;2.92;;;1.70;;
32130;SDS011;18639;50.716;7.086;2022-08-04T00:22:05;4.70;;;1.60;;
32130;SDS011;18639;50.716;7.086;2022-08-04T00:24:33;4.28;;;1.60;;
32130;SDS011;18639;50.716;7.086;2022-08-04T00:26:59;3.53;;;1.58;;
32130;SDS011;18639;50.716;7.086;2022-08-04T00:29:26;2.42;;;1.40;;
32130;SDS011;18639;50.716;7.086;2022-08-04T00:31:52;2.60;;;1.60;;
32130;SDS011;18639;50.716;7.086;2022-08-04T00:34:19;3.17;;;1.70;;
32130;SDS011;18639;50.716;7.086;2022-08-04T00:36:47;3.20;;;1.75;;
32130;SDS011;18639;50.716;7.086;2022-08-04T00:39:14;4.10;;;1.77;;
32130;SDS011;18639;50.716;7.086;2022-08-04T00:49:56;3.40;;;1.60;;
32130;SDS011;18639;50.716;7.086;2022-08-04T00:52:43;3.78;;;1.70;;
32130;SDS011;18639;50.716;7.086;2022-08-04T01:03:32;2.95;;;1.73;;
32130;SDS011;18639;50.716;7.086;2022-08-04T01:06:14;4.32;;;1.52;;
32130;SDS011;18639;50.716;7.086;2022-08-04T01:09:06;5.82;;;1.63;;
32130;SDS011;18639;50.716;7.086;2022-08-04T01:14:46;3.13;;;1.67;;
32130;SDS011;18639;50.716;7.086;2022-08-04T01:17:21;1.83;;;1.42;;
32130;SDS011;18639;50.716;7.086;2022-08-04T01:19:59;2.10;;;1.40;;
32130;SDS011;18639;50.716;7.086;2022-08-04T01:24:58;6.63;;;1.90;;
32130;SDS011;18639;50.716;7.086;2022-08-04T01:30:48;3.28;;;1.33;;
32130;SDS011;18639;50.716;7.086;2022-08-04T01:33:16;4.28;;;1.70;;
32130;SDS011;18639;50.716;7.086;2022-08-04T01:40:44;2.53;;;1.23;;
32130;SDS011;18639;50.716;7.086;2022-08-04T01:43:12;3.97;;;1.67;;
32130;SDS011;18639;50.716;7.086;2022-08-04T01:45:40;2.90;;;1.45;;
32130;SDS011;18639;50.716;7.086;2022-08-04T01:48:06;2.80;;;1.40;;
32130;SDS011;18639;50.716;7.086;2022-08-04T01:50:32;5.28;;;1.63;;
32130;SDS011;18639;50.716;7.086;2022-08-04T01:52:59;2.08;;;1.40;;
32130;SDS011;18639;50.716;7.086;2022-08-04T01:55:27;1.42;;;1.15;;
32130;SDS011;18639;50.716;7.086;2022-08-04T01:57:53;3.03;;;1.58;;
32130;SDS011;18639;50.716;7.086;2022-08-04T02:00:23;3.72;;;1.73;;
32130;SDS011;18639;50.716;7.086;2022-08-04T02:02:51;2.55;;;1.52;;
32130;SDS011;18639;50.716;7.086;2022-08-04T02:05:18;3.55;;;1.58;;
32130;SDS011;18639;50.716;7.086;2022-08-04T02:10:31;3.92;;;1.50;;
32130;SDS011;18639;50.716;7.086;2022-08-04T02:13:15;3.63;;;1.83;;
32130;SDS011;18639;50.716;7.086;2022-08-04T02:16:03;2.35;;;1.50;;
32130;SDS011;18639;50.716;7.086;2022-08-04T02:21:50;3.78;;;1.58;;
32130;SDS011;18639;50.716;7.086;2022-08-04T02:24:21;5.18;;;1.63;;
32130;SDS011;18639;50.716;7.086;2022-08-04T02:26:51;3.47;;;1.90;;
32130;SDS011;18639;50.716;7.086;2022-08-04T02:29:24;3.70;;;1.90;;
32130;SDS011;18639;50.716;7.086;2022-08-04T02:32:05;4.30;;;1.48;;
32130;SDS011;18639;50.716;7.086;2022-08-04T02:34:38;3.08;;;1.50;;
32130;SDS011;18639;50.716;7.086;2022-08-04T02:37:06;3.17;;;1.60;;
32130;SDS011;18639;50.716;7.086;2022-08-04T02:39:34;3.45;;;1.95;;
32130;SDS011;18639;50.716;7.086;2022-08-04T02:42:01;5.18;;;1.38;;
32130;SDS011;18639;50.716;7.086;2022-08-04T02:44:28;2.55;;;1.50;;
32130;SDS011;18639;50.716;7.086;2022-08-04T02:46:55;8.73;;;1.60;;
32130;SDS011;18639;50.716;7.086;2022-08-04T02:49:21;5.10;;;1.48;;
32130;SDS011;18639;50.716;7.086;2022-08-04T02:51:51;3.67;;;1.75;;
32130;SDS011;18639;50.716;7.086;2022-08-04T02:54:30;5.00;;;1.85;;
32130;SDS011;18639;50.716;7.086;2022-08-04T02:56:57;2.40;;;1.52;;
32130;SDS011;18639;50.716;7.086;2022-08-04T02:59:25;2.65;;;1.50;;
32130;SDS011;18639;50.716;7.086;2022-08-04T03:01:53;6.05;;;1.80;;
32130;SDS011;18639;50.716;7.086;2022-08-04T03:07:05;2.78;;;1.40;;
32130;SDS011;18639;50.716;7.086;2022-08-04T03:12:48;6.15;;;1.98;;
32130;SDS011;18639;50.716;7.086;2022-08-04T03:18:35;3.30;;;1.60;;
32130;SDS011;18639;50.716;7.086;2022-08-04T03:33:04;6.75;;;1.75;;
32130;SDS011;18639;50.716;7.086;2022-08-04T03:35:35;4.38;;;1.83;;
32130;SDS011;18639;50.716;7.086;2022-08-04T03:43:34;3.05;;;1.80;;
32130;SDS011;18639;50.716;7.086;2022-08-04T03:51:42;4.50;;;1.98;;
32130;SDS011;18639;50.716;7.086;2022-08-04T03:57:57;4.07;;;1.90;;
32130;SDS011;18639;50.716;7.086;2022-08-04T04:00:39;4.80;;;2.03;;
32130;SDS011;18639;50.716;7.086;2022-08-04T04:03:37;3.15;;;1.70;;
32130;SDS011;18639;50.716;7.086;2022-08-04T04:12:00;2.88;;;1.60;;
32130;SDS011;18639;50.716;7.086;2022-08-04T04:25:30;4.40;;;2.10;;
32130;SDS011;18639;50.716;7.086;2022-08-04T04:31:18;6.07;;;2.15;;
32130;SDS011;18639;50.716;7.086;2022-08-04T04:34:04;2.47;;;1.90;;
32130;SDS011;18639;50.716;7.086;2022-08-04T04:36:48;3.15;;;2.00;;
32130;SDS011;18639;50.716;7.086;2022-08-04T04:45:29;4.05;;;1.90;;
32130;SDS011;18639;50.716;7.086;2022-08-04T04:50:50;3.45;;;1.95;;
32130;SDS011;18639;50.716;7.086;2022-08-04T04:53:28;3.47;;;1.98;;
32130;SDS011;18639;50.716;7.086;2022-08-04T04:56:04;6.25;;;2.30;;
32130;SDS011;18639;50.716;7.086;2022-08-04T04:58:35;3.20;;;1.95;;
32130;SDS011;18639;50.716;7.086;2022-08-04T05:01:13;3.22;;;1.77;;
32130;SDS011;18639;50.716;7.086;2022-08-04T05:15:48;4.25;;;2.22;;
32130;SDS011;18639;50.716;7.086;2022-08-04T05:18:20;4.30;;;2.55;;
32130;SDS011;18639;50.716;7.086;2022-08-04T05:20:53;3.58;;;2.20;;
32130;SDS011;18639;50.716;7.086;2022-08-04T05:23:24;3.75;;;2.10;;
32130;SDS011;18639;50.716;7.086;2022-08-04T05:25:56;4.97;;;2.15;;
32130;SDS011;18639;50.716;7.086;2022-08-04T05:28:25;3.80;;;1.92;;
32130;SDS011;18639;50.716;7.086;2022-08-04T05:31:00;3.00;;;2.15;;
32130;SDS011;18639;50.716;7.086;2022-08-04T05:33:40;6.70;;;2.83;;
32130;SDS011;18639;50.716;7.086;2022-08-04T05:36:13;4.00;;;2.80;;
32130;SDS011;18639;50.716;7.086;2022-08-04T05:38:41;3.47;;;2.17;;
32130;SDS011;18639;50.716;7.086;2022-08-04T05:41:08;9.52;;;2.60;;
32130;SDS011;18639;50.716;7.086;2022-08-04T05:43:36;3.97;;;2.45;;
32130;SDS011;18639;50.716;7.086;2022-08-04T05:46:05;5.70;;;2.50;;
32130;SDS011;18639;50.716;7.086;2022-08-04T05:48:33;5.68;;;2.45;;
32130;SDS011;18639;50.716;7.086;2022-08-04T05:50:59;3.80;;;2.30;;
32130;SDS011;18639;50.716;7.086;2022-08-04T05:53:27;3.92;;;2.10;;
32130;SDS011;18639;50.716;7.086;2022-08-04T05:55:52;3.55;;;2.10;;
32130;SDS011;18639;50.716;7.086;2022-08-04T05:58:19;2.83;;;2.08;;
32130;SDS011;18639;50.716;7.086;2022-08-04T06:00:45;2.72;;;1.85;;
32130;SDS011;18639;50.716;7.086;2022-08-04T06:03:12;4.10;;;2.42;;
32130;SDS011;18639;50.716;7.086;2022-08-04T06:05:39;3.90;;;2.10;;
32130;SDS011;18639;50.716;7.086;2022-08-04T06:08:07;4.40;;;2.42;;
32130;SDS011;18639;50.716;7.086;2022-08-04T06:10:33;4.05;;;2.38;;
32130;SDS011;18639;50.716;7.086;2022-08-04T06:13:04;2.60;;;1.90;;
32130;SDS011;18639;50.716;7.086;2022-08-04T06:15:32;3.30;;;2.00;;
32130;SDS011;18639;50.716;7.086;2022-08-04T06:18:03;4.72;;;2.40;;
32130;SDS011;18639;50.716;7.086;2022-08-04T06:20:32;4.32;;;2.40;;
32130;SDS011;18639;50.716;7.086;2022-08-04T06:23:02;4.18;;;2.17;;
32130;SDS011;18639;50.716;7.086;2022-08-04T06:25:31;3.75;;;2.60;;
32130;SDS011;18639;50.716;7.086;2022-08-04T06:27:58;2.92;;;1.98;;
32130;SDS011;18639;50.716;7.086;2022-08-04T06:30:26;4.97;;;2.72;;
32130;SDS011;18639;50.716;7.086;2022-08-04T06:32:54;5.57;;;2.50;;
32130;SDS011;18639;50.716;7.086;2022-08-04T06:35:20;3.40;;;2.10;;
32130;SDS011;18639;50.716;7.086;2022-08-04T06:37:47;3.10;;;2.10;;
32130;SDS011;18639;50.716;7.086;2022-08-04T06:40:15;3.85;;;2.40;;
32130;SDS011;18639;50.716;7.086;2022-08-04T06:42:42;5.32;;;2.47;;
32130;SDS011;18639;50.716;7.086;2022-08-04T06:45:09;6.03;;;2.38;;
32130;SDS011;18639;50.716;7.086;2022-08-04T06:47:37;5.75;;;2.67;;
32130;SDS011;18639;50.716;7.086;2022-08-04T06:50:05;6.95;;;2.72;;
32130;SDS011;18639;50.716;7.086;2022-08-04T06:52:32;3.38;;;2.00;;
32130;SDS011;18639;50.716;7.086;2022-08-04T06:54:57;4.40;;;2.28;;
32130;SDS011;18639;50.716;7.086;2022-08-04T06:57:24;4.05;;;2.40;;
32130;SDS011;18639;50.716;7.086;2022-08-04T06:59:58;4.18;;;2.33;;
32130;SDS011;18639;50.716;7.086;2022-08-04T07:02:29;3.28;;;2.20;;
32130;SDS011;18639;50.716;7.086;2022-08-04T07:04:57;5.13;;;2.22;;
32130;SDS011;18639;50.716;7.086;2022-08-04T07:07:23;4.40;;;2.20;;
32130;SDS011;18639;50.716;7.086;2022-08-04T07:09:49;3.58;;;2.22;;
32130;SDS011;18639;50.716;7.086;2022-08-04T07:12:15;4.65;;;2.33;;
32130;SDS011;18639;50.716;7.086;2022-08-04T07:14:45;5.38;;;1.90;;
32130;SDS011;18639;50.716;7.086;2022-08-04T07:17:15;3.38;;;2.08;;
32130;SDS011;18639;50.716;7.086;2022-08-04T07:19:41;7.05;;;2.20;;
32130;SDS011;18639;50.716;7.086;2022-08-04T07:22:08;4.53;;;1.80;;
32130;SDS011;18639;50.716;7.086;2022-08-04T07:24:35;3.80;;;2.20;;
32130;SDS011;18639;50.716;7.086;2022-08-04T07:27:01;6.97;;;1.83;;
32130;SDS011;18639;50.716;7.086;2022-08-04T07:29:28;5.80;;;2.42;;
32130;SDS011;18639;50.716;7.086;2022-08-04T07:31:54;3.58;;;2.30;;
32130;SDS011;18639;50.716;7.086;2022-08-04T07:34:20;6.28;;;2.55;;
32130;SDS011;18639;50.716;7.086;2022-08-04T07:36:48;3.83;;;2.22;;
32130;SDS011;18639;50.716;7.086;2022-08-04T07:39:18;5.15;;;2.30;;
32130;SDS011;18639;50.716;7.086;2022-08-04T07:41:45;4.10;;;1.88;;
32130;SDS011;18639;50.716;7.086;2022-08-04T07:44:12;3.20;;;1.98;;
32130;SDS011;18639;50.716;7.086;2022-08-04T07:46:39;4.80;;;2.08;;
32130;SDS011;18639;50.716;7.086;2022-08-04T07:49:05;7.22;;;1.92;;
32130;SDS011;18639;50.716;7.086;2022-08-04T07:51:31;8.18;;;2.50;;
32130;SDS011;18639;50.716;7.086;2022-08-04T07:53:59;3.83;;;2.00;;
32130;SDS011;18639;50.716;7.086;2022-08-04T07:56:27;5.65;;;1.95;;
32130;SDS011;18639;50.716;7.086;2022-08-04T07:58:53;5.20;;;2.47;;
32130;SDS011;18639;50.716;7.086;2022-08-04T08:01:18;3.05;;;1.98;;
32130;SDS011;18639;50.716;7.086;2022-08-04T08:03:44;3.42;;;2.47;;
32130;SDS011;18639;50.716;7.086;2022-08-04T08:06:10;4.53;;;2.15;;
32130;SDS011;18639;50.716;7.086;2022-08-04T08:08:39;4.55;;;2.47;;
32130;SDS011;18639;50.716;7.086;2022-08-04T08:11:05;4.45;;;2.20;;
32130;SDS011;18639;50.716;7.086;2022-08-04T08:13:31;2.72;;;2.05;;
32130;SDS011;18639;50.716;7.086;2022-08-04T08:15:58;3.63;;;2.20;;
32130;SDS011;18639;50.716;7.086;2022-08-04T08:18:24;3.90;;;2.13;;
32130;SDS011;18639;50.716;7.086;2022-08-04T08:20:50;6.45;;;2.20;;
32130;SDS011;18639;50.716;7.086;2022-08-04T08:23:17;5.40;;;2.53;;
32130;SDS011;18639;50.716;7.086;2022-08-04T08:25:42;4.28;;;2.03;;
32130;SDS011;18639;50.716;7.086;2022-08-04T08:28:08;3.90;;;2.40;;
32130;SDS011;18639;50.716;7.086;2022-08-04T08:30:34;5.65;;;2.85;;
32130;SDS011;18639;50.716;7.086;2022-08-04T08:33:00;2.90;;;2.20;;
32130;SDS011;18639;50.716;7.086;2022-08-04T08:35:29;3.30;;;2.50;;
32130;SDS011;18639;50.716;7.086;2022-08-04T08:38:00;3.38;;;2.40;;
32130;SDS011;18639;50.716;7.086;2022-08-04T08:40:31;3.35;;;2.40;;
32130;SDS011;18639;50.716;7.086;2022-08-04T08:45:54;5.20;;;2.47;;
32130;SDS011;18639;50.716;7.086;2022-08-04T08:56:42;2.53;;;2.00;;
32130;SDS011;18639;50.716;7.086;2022-08-04T09:10:24;3.13;;;2.13;;
32130;SDS011;18639;50.716;7.086;2022-08-04T09:13:09;3.90;;;2.22;;
32130;SDS011;18639;50.716;7.086;2022-08-04T09:15:51;3.88;;;2.30;;
32130;SDS011;18639;50.716;7.086;2022-08-04T09:18:30;2.92;;;2.13;;
32130;SDS011;18639;50.716;7.086;2022-08-04T09:24:19;3.50;;;2.30;;
32130;SDS011;18639;50.716;7.086;2022-08-04T09:27:07;3.40;;;2.40;;
32130;SDS011;18639;50.716;7.086;2022-08-04T09:29:52;6.07;;;2.60;;
32130;SDS011;18639;50.716;7.086;2022-08-04T09:32:25;3.38;;;2.30;;
32130;SDS011;18639;50.716;7.086;2022-08-04T09:37:39;5.22;;;2.30;;
32130;SDS011;18639;50.716;7.086;2022-08-04T09:42:53;2.28;;;1.58;;
32130;SDS011;18639;50.716;7.086;2022-08-04T09:45:40;3.40;;;2.00;;
32130;SDS011;18639;50.716;7.086;2022-08-04T09:48:11;3.08;;;1.88;;
32130;SDS011;18639;50.716;7.086;2022-08-04T09:50:41;2.45;;;1.70;;
32130;SDS011;18639;50.716;7.086;2022-08-04T09:53:19;3.10;;;1.70;;
32130;SDS011;18639;50.716;7.086;2022-08-04T10:01:08;4.97;;;1.50;;
32130;SDS011;18639;50.716;7.086;2022-08-04T10:03:36;3.17;;;1.75;;
32130;SDS011;18639;50.716;7.086;2022-08-04T10:08:59;3.65;;;1.60;;
32130;SDS011;18639;50.716;7.086;2022-08-04T10:14:19;2.88;;;1.65;;
32130;SDS011;18639;50.716;7.086;2022-08-04T10:20:07;2.22;;;1.50;;
32130;SDS011;18639;50.716;7.086;2022-08-04T10:23:25;4.97;;;1.70;;
32130;SDS011;18639;50.716;7.086;2022-08-04T10:25:44;4.60;;;1.60;;
32130;SDS011;18639;50.716;7.086;2022-08-04T10:28:23;3.28;;;1.40;;
32130;SDS011;18639;50.716;7.086;2022-08-04T10:30:53;3.60;;;1.60;;
32130;SDS011;18639;50.716;7.086;2022-08-04T10:33:25;2.55;;;1.70;;
32130;SDS011;18639;50.716;7.086;2022-08-04T10:36:05;2.67;;;1.60;;
32130;SDS011;18639;50.716;7.086;2022-08-04T10:38:40;3.67;;;1.88;;
32130;SDS011;18639;50.716;7.086;2022-08-04T10:41:19;2.90;;;1.75;;
32130;SDS011;18639;50.716;7.086;2022-08-04T10:46:31;3.95;;;1.50;;
32130;SDS011;18639;50.716;7.086;2022-08-04T10:49:07;2.53;;;1.30;;
32130;SDS011;18639;50.716;7.086;2022-08-04T10:54:46;1.90;;;1.40;;
32130;SDS011;18639;50.716;7.086;2022-08-04T10:57:41;2.40;;;1.60;;
32130;SDS011;18639;50.716;7.086;2022-08-04T11:00:12;2.85;;;1.50;;
32130;SDS011;18639;50.716;7.086;2022-08-04T11:02:45;4.28;;;1.60;;
32130;SDS011;18639;50.716;7.086;2022-08-04T11:11:11;3.40;;;1.70;;
32130;SDS011;18639;50.716;7.086;2022-08-04T11:14:16;1.52;;;1.20;;
32130;SDS011;18639;50.716;7.086;2022-08-04T11:16:52;4.25;;;1.30;;
32130;SDS011;18639;50.716;7.086;2022-08-04T11:19:46;4.57;;;1.35;;
32130;SDS011;18639;50.716;7.086;2022-08-04T11:30:12;1.45;;;0.70;;
32130;SDS011;18639;50.716;7.086;2022-08-04T11:35:12;1.52;;;0.90;;
32130;SDS011;18639;50.716;7.086;2022-08-04T11:37:49;1.55;;;1.10;;
32130;SDS011;18639;50.716;7.086;2022-08-04T11:40:27;2.67;;;1.00;;
32130;SDS011;18639;50.716;7.086;2022-08-04T11:43:00;3.63;;;0.80;;
32130;SDS011;18639;50.716;7.086;2022-08-04T11:45:39;1.65;;;0.95;;
32130;SDS011;18639;50.716;7.086;2022-08-04T11:48:10;2.85;;;1.20;;
32130;SDS011;18639;50.716;7.086;2022-08-04T11:50:48;1.42;;;1.00;;
32130;SDS011;18639;50.716;7.086;2022-08-04T11:53:17;1.17;;;1.00;;
32130;SDS011;18639;50.716;7.086;2022-08-04T11:55:45;1.20;;;0.90;;
32130;SDS011;18639;50.716;7.086;2022-08-04T11:58:16;1.58;;;1.20;;
32130;SDS011;18639;50.716;7.086;2022-08-04T12:00:45;4.03;;;1.40;;
32130;SDS011;18639;50.716;7.086;2022-08-04T12:13:56;4.20;;;1.70;;
32130;SDS011;18639;50.716;7.086;2022-08-04T12:19:49;6.50;;;1.75;;
32130;SDS011;18639;50.716;7.086;2022-08-04T12:22:20;3.22;;;2.03;;
32130;SDS011;18639;50.716;7.086;2022-08-04T12:27:36;3.13;;;1.58;;
32130;SDS011;18639;50.716;7.086;2022-08-04T12:30:06;3.72;;;1.85;;
32130;SDS011;18639;50.716;7.086;2022-08-04T12:32:37;3.00;;;1.73;;
32130;SDS011;18639;50.716;7.086;2022-08-04T12:35:12;4.38;;;2.05;;
32130;SDS011;18639;50.716;7.086;2022-08-04T12:37:46;3.47;;;1.90;;
32130;SDS011;18639;50.716;7.086;2022-08-04T12:40:28;4.72;;;2.03;;
32130;SDS011;18639;50.716;7.086;2022-08-04T12:43:02;5.82;;;1.95;;
32130;SDS011;18639;50.716;7.086;2022-08-04T12:45:34;5.25;;;1.77;;
32130;SDS011;18639;50.716;7.086;2022-08-04T12:48:00;3.88;;;1.85;;
32130;SDS011;18639;50.716;7.086;2022-08-04T12:50:30;4.72;;;2.15;;
32130;SDS011;18639;50.716;7.086;2022-08-04T12:52:56;5.28;;;1.77;;
32130;SDS011;18639;50.716;7.086;2022-08-04T12:55:24;4.15;;;1.80;;
32130;SDS011;18639;50.716;7.086;2022-08-04T12:57:51;4.03;;;1.85;;
32130;SDS011;18639;50.716;7.086;2022-08-04T13:00:22;3.55;;;1.75;;
32130;SDS011;18639;50.716;7.086;2022-08-04T13:02:49;5.63;;;1.77;;
32130;SDS011;18639;50.716;7.086;2022-08-04T13:05:16;4.25;;;1.90;;
32130;SDS011;18639;50.716;7.086;2022-08-04T13:07:46;6.28;;;1.70;;
32130;SDS011;18639;50.716;7.086;2022-08-04T13:10:15;8.80;;;1.90;;
32130;SDS011;18639;50.716;7.086;2022-08-04T13:12:43;8.23;;;2.05;;
32130;SDS011;18639;50.716;7.086;2022-08-04T13:15:16;4.07;;;1.67;;
32130;SDS011;18639;50.716;7.086;2022-08-04T13:20:31;2.33;;;1.67;;
32130;SDS011;18639;50.716;7.086;2022-08-04T13:25:45;2.58;;;1.58;;
32130;SDS011;18639;50.716;7.086;2022-08-04T13:28:19;3.58;;;1.63;;
32130;SDS011;18639;50.716;7.086;2022-08-04T13:30:47;3.90;;;1.83;;
32130;SDS011;18639;50.716;7.086;2022-08-04T13:33:16;4.75;;;1.48;;
32130;SDS011;18639;50.716;7.086;2022-08-04T13:35:44;4.20;;;1.77;;
32130;SDS011;18639;50.716;7.086;2022-08-04T13:38:11;4.20;;;1.50;;
32130;SDS011;18639;50.716;7.086;2022-08-04T13:40:38;5.93;;;1.50;;
32130;SDS011;18639;50.716;7.086;2022-08-04T13:43:06;2.63;;;1.58;;
32130;SDS011;18639;50.716;7.086;2022-08-04T13:45:33;1.83;;;1.48;;
32130;SDS011;18639;50.716;7.086;2022-08-04T13:48:01;2.65;;;1.70;;
32130;SDS011;18639;50.716;7.086;2022-08-04T13:50:29;9.35;;;1.50;;
32130;SDS011;18639;50.716;7.086;2022-08-04T13:52:57;5.25;;;1.65;;
32130;SDS011;18639;50.716;7.086;2022-08-04T13:55:25;3.50;;;1.70;;
32130;SDS011;18639;50.716;7.086;2022-08-04T13:57:55;3.50;;;1.48;;
32130;SDS011;18639;50.716;7.086;2022-08-04T14:00:24;4.47;;;1.55;;
32130;SDS011;18639;50.716;7.086;2022-08-04T14:03:02;4.65;;;2.03;;
32130;SDS011;18639;50.716;7.086;2022-08-04T14:05:30;2.55;;;1.60;;
32130;SDS011;18639;50.716;7.086;2022-08-04T14:08:02;3.13;;;1.80;;
32130;SDS011;18639;50.716;7.086;2022-08-04T14:10:31;2.30;;;1.58;;
32130;SDS011;18639;50.716;7.086;2022-08-04T14:12:58;5.95;;;1.92;;
32130;SDS011;18639;50.716;7.086;2022-08-04T14:15:40;4.65;;;1.75;;
32130;SDS011;18639;50.716;7.086;2022-08-04T14:23:50;3.13;;;1.70;;
32130;SDS011;18639;50.716;7.086;2022-08-04T14:26:32;4.32;;;2.03;;
32130;SDS011;18639;50.716;7.086;2022-08-04T14:29:14;5.00;;;1.92;;
32130;SDS011;18639;50.716;7.086;2022-08-04T14:31:41;3.35;;;1.70;;
32130;SDS011;18639;50.716;7.086;2022-08-04T14:34:07;3.10;;;1.60;;
32130;SDS011;18639;50.716;7.086;2022-08-04T14:36:39;6.57;;;1.60;;
32130;SDS011;18639;50.716;7.086;2022-08-04T14:39:05;3.85;;;1.85;;
32130;SDS011;18639;50.716;7.086;2022-08-04T14:41:42;5.55;;;1.90;;
32130;SDS011;18639;50.716;7.086;2022-08-04T14:44:10;3.97;;;1.55;;
32130;SDS011;18639;50.716;7.086;2022-08-04T14:46:35;3.90;;;1.80;;
32130;SDS011;18639;50.716;7.086;2022-08-04T14:49:15;3.58;;;1.80;;
32130;SDS011;18639;50.716;7.086;2022-08-04T14:51:44;3.83;;;2.10;;
32130;SDS011;18639;50.716;7.086;2022-08-04T14:54:23;4.15;;;1.80;;
32130;SDS011;18639;50.716;7.086;2022-08-04T14:56:57;7.90;;;2.00;;
32130;SDS011;18639;50.716;7.086;2022-08-04T14:59:25;5.57;;;2.15;;
32130;SDS011;18639;50.716;7.086;2022-08-04T15:01:52;5.05;;;2.22;;
32130;SDS011;18639;50.716;7.086;2022-08-04T15:04:19;5.63;;;2.00;;
32130;SDS011;18639;50.716;7.086;2022-08-04T15:06:48;4.18;;;2.10;;
32130;SDS011;18639;50.716;7.086;2022-08-04T15:09:14;4.38;;;2.10;;
32130;SDS011;18639;50.716;7.086;2022-08-04T15:11:40;3.35;;;2.10;;
32130;SDS011;18639;50.716;7.086;2022-08-04T15:14:06;9.65;;;2.15;;
32130;SDS011;18639;50.716;7.086;2022-08-04T15:16:32;4.43;;;2.17;;
32130;SDS011;18639;50.716;7.086;2022-08-04T15:18:58;6.85;;;2.35;;
32130;SDS011;18639;50.716;7.086;2022-08-04T15:21:24;7.07;;;2.25;;
32130;SDS011;18639;50.716;7.086;2022-08-04T15:23:52;4.70;;;2.13;;
32130;SDS011;18639;50.716;7.086;2022-08-04T15:26:24;3.38;;;2.10;;
32130;SDS011;18639;50.716;7.086;2022-08-04T15:28:52;5.93;;;2.17;;
32130;SDS011;18639;50.716;7.086;2022-08-04T15:31:22;5.70;;;2.10;;
32130;SDS011;18639;50.716;7.086;2022-08-04T15:33:49;4.68;;;2.30;;
32130;SDS011;18639;50.716;7.086;2022-08-04T15:36:20;7.55;;;2.47;;
32130;SDS011;18639;50.716;7.086;2022-08-04T15:44:35;2.97;;;1.90;;
32130;SDS011;18639;50.716;7.086;2022-08-04T15:47:16;4.15;;;2.38;;
32130;SDS011;18639;50.716;7.086;2022-08-04T15:49:43;2.42;;;1.67;;
32130;SDS011;18639;50.716;7.086;2022-08-04T15:52:12;5.07;;;2.00;;
32130;SDS011;18639;50.716;7.086;2022-08-04T15:54:40;1.90;;;1.40;;
32130;SDS011;18639;50.716;7.086;2022-08-04T15:57:06;7.72;;;1.85;;
32130;SDS011;18639;50.716;7.086;2022-08-04T16:07:52;5.97;;;2.28;;
32130;SDS011;18639;50.716;7.086;2022-08-04T16:13:03;2.90;;;2.05;;
32130;SDS011;18639;50.716;7.086;2022-08-04T16:20:49;5.93;;;2.28;;
32130;SDS011;18639;50.716;7.086;2022-08-04T16:23:32;4.28;;;2.10;;
32130;SDS011;18639;50.716;7.086;2022-08-04T16:29:00;4.13;;;2.05;;
32130;SDS011;18639;50.716;7.086;2022-08-04T16:31:25;3.92;;;2.10;;
32130;SDS011;18639;50.716;7.086;2022-08-04T16:33:51;6.10;;;2.28;;
32130;SDS011;18639;50.716;7.086;2022-08-04T16:36:53;6.03;;;2.70;;
32130;SDS011;18639;50.716;7.086;2022-08-04T16:39:20;8.07;;;2.55;;
32130;SDS011;18639;50.716;7.086;2022-08-04T16:41:46;5.22;;;2.53;;
32130;SDS011;18639;50.716;7.086;2022-08-04T16:44:35;5.72;;;2.60;;
32130;SDS011;18639;50.716;7.086;2022-08-04T16:47:02;3.95;;;2.60;;
32130;SDS011;18639;50.716;7.086;2022-08-04T16:49:29;6.25;;;2.58;;
32130;SDS011;18639;50.716;7.086;2022-08-04T16:52:00;5.97;;;2.83;;
32130;SDS011;18639;50.716;7.086;2022-08-04T16:54:30;6.10;;;2.55;;
32130;SDS011;18639;50.716;7.086;2022-08-04T16:56:57;6.25;;;2.85;;
32130;SDS011;18639;50.716;7.086;2022-08-04T16:59:23;9.95;;;3.30;;
32130;SDS011;18639;50.716;7.086;2022-08-04T17:01:50;4.75;;;2.05;;
32130;SDS011;18639;50.716;7.086;2022-08-04T17:04:17;8.25;;;2.35;;
32130;SDS011;18639;50.716;7.086;2022-08-04T17:06:57;4.90;;;2.50;;
32130;SDS011;18639;50.716;7.086;2022-08-04T17:09:24;5.70;;;2.40;;
32130;SDS011;18639;50.716;7.086;2022-08-04T17:11:49;5.35;;;2.70;;
32130;SDS011;18639;50.716;7.086;2022-08-04T17:14:23;5.97;;;2.78;;
32130;SDS011;18639;50.716;7.086;2022-08-04T17:16:50;4.25;;;2.20;;
32130;SDS011;18639;50.716;7.086;2022-08-04T17:19:17;7.30;;;2.50;;
32130;SDS011;18639;50.716;7.086;2022-08-04T17:21:42;5.47;;;2.58;;
32130;SDS011;18639;50.716;7.086;2022-08-04T17:24:09;4.50;;;2.28;;
32130;SDS011;18639;50.716;7.086;2022-08-04T17:26:36;6.72;;;2.42;;
32130;SDS011;18639;50.716;7.086;2022-08-04T17:29:03;5.10;;;2.50;;
32130;SDS011;18639;50.716;7.086;2022-08-04T17:31:29;2.97;;;2.00;;
32130;SDS011;18639;50.716;7.086;2022-08-04T17:33:57;3.92;;;2.17;;
32130;SDS011;18639;50.716;7.086;2022-08-04T17:36:26;5.53;;;2.60;;
32130;SDS011;18639;50.716;7.086;2022-08-04T17:38:56;8.45;;;2.72;;
32130;SDS011;18639;50.716;7.086;2022-08-04T17:41:24;5.47;;;2.38;;
32130;SDS011;18639;50.716;7.086;2022-08-04T17:43:51;7.18;;;2.55;;
32130;SDS011;18639;50.716;7.086;2022-08-04T17:46:20;7.45;;;2.47;;
32130;SDS011;18639;50.716;7.086;2022-08-04T17:51:34;7.38;;;2.20;;
32130;SDS011;18639;50.716;7.086;2022-08-04T17:56:55;6.03;;;2.58;;
32130;SDS011;18639;50.716;7.086;2022-08-04T17:59:41;4.90;;;2.35;;
32130;SDS011;18639;50.716;7.086;2022-08-04T18:02:07;4.72;;;2.40;;
32130;SDS011;18639;50.716;7.086;2022-08-04T18:04:35;5.53;;;2.47;;
32130;SDS011;18639;50.716;7.086;2022-08-04T18:07:13;6.85;;;2.70;;
32130;SDS011;18639;50.716;7.086;2022-08-04T18:09:40;4.80;;;2.42;;
32130;SDS011;18639;50.716;7.086;2022-08-04T18:12:32;5.30;;;2.45;;
32130;SDS011;18639;50.716;7.086;2022-08-04T18:20:08;3.28;;;2.20;;
32130;SDS011;18639;50.716;7.086;2022-08-04T18:22:35;4.32;;;2.33;;
32130;SDS011;18639;50.716;7.086;2022-08-04T18:25:01;4.15;;;2.30;;
32130;SDS011;18639;50.716;7.086;2022-08-04T18:27:28;7.65;;;2.50;;
32130;SDS011;18639;50.716;7.086;2022-08-04T18:29:55;4.15;;;2.60;;
32130;SDS011;18639;50.716;7.086;2022-08-04T18:32:21;5.30;;;2.33;;
32130;SDS011;18639;50.716;7.086;2022-08-04T18:34:49;4.68;;;2.67;;
32130;SDS011;18639;50.716;7.086;2022-08-04T18:37:15;6.40;;;2.50;;
32130;SDS011;18639;50.716;7.086;2022-08-04T18:39:40;4.82;;;2.55;;
32130;SDS011;18639;50.716;7.086;2022-08-04T18:42:06;12.18;;;3.05;;
32130;SDS011;18639;50.716;7.086;2022-08-04T18:44:31;5.18;;;2.72;;
32130;SDS011;18639;50.716;7.086;2022-08-04T18:46:58;4.22;;;2.38;;
32130;SDS011;18639;50.716;7.086;2022-08-04T18:49:24;6.43;;;2.50;;
32130;SDS011;18639;50.716;7.086;2022-08-04T18:51:53;8.05;;;2.50;;
32130;SDS011;18639;50.716;7.086;2022-08-04T18:54:19;3.40;;;2.20;;
32130;SDS011;18639;50.716;7.086;2022-08-04T18:56:49;5.43;;;2.60;;
32130;SDS011;18639;50.716;7.086;2022-08-04T18:59:15;4.05;;;2.28;;
32130;SDS011;18639;50.716;7.086;2022-08-04T19:01:41;5.43;;;2.60;;
32130;SDS011;18639;50.716;7.086;2022-08-04T19:04:06;6.60;;;2.53;;
32130;SDS011;18639;50.716;7.086;2022-08-04T19:06:33;4.65;;;2.85;;
32130;SDS011;18639;50.716;7.086;2022-08-04T19:08:59;4.57;;;2.55;;
32130;SDS011;18639;50.716;7.086;2022-08-04T19:11:24;6.78;;;2.53;;
32130;SDS011;18639;50.716;7.086;2022-08-04T19:13:50;5.13;;;2.92;;
32130;SDS011;18639;50.716;7.086;2022-08-04T19:16:16;5.32;;;2.70;;
32130;SDS011;18639;50.716;7.086;2022-08-04T19:18:42;8.75;;;2.88;;